createdAt,value
2023-02-03T00:01:34.472Z,7.65
2023-02-03T00:06:36.052Z,7.64
2023-02-03T00:11:37.832Z,7.60
2023-02-03T00:16:39.458Z,7.69
2023-02-03T00:21:40.996Z,7.79
2023-02-03T00:26:43.645Z,7.77
2023-02-03T00:31:45.262Z,7.70
2023-02-03T00:36:48.140Z,7.72
2023-02-03T00:41:49.696Z,7.78
2023-02-03T00:46:51.187Z,7.78
2023-02-03T00:51:53.067Z,7.75
2023-02-03T00:56:54.541Z,7.71
2023-02-03T01:01:56.051Z,7.77
2023-02-03T01:06:59.808Z,7.78
2023-02-03T01:12:01.410Z,7.83
2023-02-03T01:17:02.938Z,7.85
2023-02-03T01:22:04.491Z,7.87
2023-02-03T01:27:06.276Z,7.86
2023-02-03T01:32:07.818Z,7.71
2023-02-03T01:37:09.327Z,7.77
2023-02-03T01:42:15.367Z,7.78
2023-02-03T01:47:34.345Z,7.85
2023-02-03T01:52:37.250Z,7.84
2023-02-03T01:57:47.189Z,7.84
2023-02-03T02:02:50.151Z,7.84
2023-02-03T02:07:51.751Z,7.84
2023-02-03T02:12:57.300Z,7.86
2023-02-03T02:18:24.708Z,7.92
2023-02-03T02:23:42.313Z,7.84
2023-02-03T02:28:43.754Z,7.83
2023-02-03T02:34:14.177Z,7.83
2023-02-03T02:39:34.776Z,7.80
2023-02-03T02:44:41.257Z,7.80
2023-02-03T02:49:59.182Z,7.85
2023-02-03T02:55:07.693Z,7.81
2023-02-03T03:00:09.752Z,7.80
2023-02-03T03:05:12.509Z,7.80
2023-02-03T03:10:18.847Z,7.78
2023-02-03T03:15:26.726Z,7.74
2023-02-03T03:20:30.526Z,7.69
2023-02-03T03:25:39.337Z,7.68
2023-02-03T03:30:41.109Z,7.69
2023-02-03T03:36:07.992Z,7.73
2023-02-03T03:41:25.145Z,7.68
2023-02-03T03:46:30.072Z,7.71
2023-02-03T03:51:36.972Z,7.72
2023-02-03T03:57:03.470Z,7.75
2023-02-03T04:02:05.401Z,7.76
2023-02-03T04:07:06.976Z,7.68
2023-02-03T04:12:24.867Z,7.70
2023-02-03T04:17:26.365Z,7.69
2023-02-03T04:22:27.855Z,7.64
2023-02-03T04:27:29.395Z,7.66
2023-02-03T04:32:31.123Z,7.61
2023-02-03T04:37:32.813Z,7.64
2023-02-03T04:42:36.266Z,7.59
2023-02-03T04:47:39.304Z,7.59
2023-02-03T04:52:40.884Z,7.60
2023-02-03T04:57:42.419Z,7.57
2023-02-03T05:02:43.965Z,7.60
2023-02-03T05:07:45.484Z,7.57
2023-02-03T05:12:47.042Z,7.62
2023-02-03T05:17:48.838Z,7.65
2023-02-03T05:22:50.375Z,7.68
2023-02-03T05:27:51.905Z,7.72
2023-02-03T05:32:53.475Z,7.73
2023-02-03T05:37:54.951Z,7.70
2023-02-03T05:42:56.445Z,7.71
2023-02-03T05:47:57.970Z,7.61
2023-02-03T05:53:00.403Z,7.59
2023-02-03T05:58:01.893Z,7.53
2023-02-03T06:03:04.190Z,7.55
2023-02-03T06:08:05.699Z,7.63
2023-02-03T06:13:16.040Z,7.65
2023-02-03T06:18:17.526Z,7.68
2023-02-03T06:23:19.329Z,7.79
2023-02-03T06:28:20.918Z,7.85
2023-02-03T06:33:22.529Z,7.88
2023-02-03T06:38:24.099Z,7.82
2023-02-03T06:43:25.680Z,7.80
2023-02-03T06:48:27.175Z,7.78
2023-02-03T06:53:32.079Z,7.83
2023-02-03T06:58:33.561Z,7.84
2023-02-03T07:03:35.039Z,7.87
2023-02-03T07:08:36.515Z,7.90
2023-02-03T07:13:38.003Z,7.93
2023-02-03T07:18:48.048Z,8.05
2023-02-03T07:23:50.724Z,8.03
2023-02-03T07:28:52.595Z,7.95
2023-02-03T07:33:54.062Z,7.81
2023-02-03T07:38:55.573Z,7.87
2023-02-03T07:43:57.108Z,7.92
2023-02-03T07:48:58.605Z,8.01
2023-02-03T07:54:00.182Z,8.10
2023-02-03T07:59:04.511Z,8.06
2023-02-03T08:04:06.000Z,8.15
2023-02-03T08:09:07.470Z,8.11
2023-02-03T08:14:08.986Z,8.15
2023-02-03T08:19:10.626Z,8.19
2023-02-03T08:24:12.182Z,8.20
2023-02-03T08:29:13.626Z,8.05
2023-02-03T08:34:15.160Z,8.08
2023-02-03T08:39:16.694Z,8.12
2023-02-03T08:44:19.771Z,8.11
2023-02-03T08:49:21.338Z,8.14
2023-02-03T08:54:23.344Z,8.18
2023-02-03T08:59:24.966Z,8.24
2023-02-03T09:04:26.485Z,8.32
2023-02-03T09:09:29.104Z,8.32
2023-02-03T09:14:32.971Z,8.30
2023-02-03T09:19:36.510Z,8.39
2023-02-03T09:24:38.271Z,8.41
2023-02-03T09:29:39.809Z,8.27
2023-02-03T09:34:41.394Z,8.34
2023-02-03T09:39:42.951Z,8.37
2023-02-03T09:44:49.017Z,8.45
2023-02-03T09:49:54.061Z,8.42
2023-02-03T09:55:13.363Z,8.28
2023-02-03T10:00:24.103Z,8.31
2023-02-03T10:05:36.244Z,8.34
2023-02-03T10:10:42.190Z,8.46
2023-02-03T10:16:01.912Z,8.53
2023-02-03T10:21:27.449Z,8.45
2023-02-03T10:26:29.758Z,8.41
2023-02-03T10:31:35.354Z,8.54
2023-02-03T10:36:56.207Z,8.62
2023-02-03T10:41:58.313Z,8.63
2023-02-03T10:46:59.904Z,8.61
2023-02-03T10:52:04.839Z,8.71
2023-02-03T10:57:12.575Z,8.79
2023-02-03T11:02:29.260Z,8.85
2023-02-03T11:07:30.827Z,8.89
2023-02-03T11:12:32.457Z,8.84
2023-02-03T11:17:36.485Z,8.90
2023-02-03T11:22:40.321Z,8.95
2023-02-03T11:27:42.449Z,8.92
2023-02-03T11:32:46.483Z,8.82
2023-02-03T11:37:51.012Z,8.90
2023-02-03T11:42:52.460Z,8.89
2023-02-03T11:48:00.333Z,8.91
2023-02-03T11:53:14.006Z,8.91
2023-02-03T11:58:49.189Z,8.89
2023-02-03T12:03:59.613Z,8.88
2023-02-03T12:09:24.447Z,8.93
2023-02-03T12:14:36.613Z,8.90
2023-02-03T12:20:12.764Z,8.85
2023-02-03T12:25:27.700Z,8.84
2023-02-03T12:30:35.878Z,8.82
2023-02-03T12:35:42.747Z,8.86
2023-02-03T12:40:54.172Z,8.82
2023-02-03T12:46:07.611Z,8.79
2023-02-03T12:51:15.734Z,8.73
2023-02-03T12:56:25.640Z,8.66
2023-02-03T13:01:35.008Z,8.69
2023-02-03T13:06:39.499Z,8.71
2023-02-03T13:11:48.505Z,8.64
2023-02-03T13:16:55.557Z,8.59
2023-02-03T13:21:57.209Z,8.57
2023-02-03T13:27:30.600Z,8.51
2023-02-03T13:32:59.663Z,8.40
2023-02-03T13:38:38.706Z,8.31
2023-02-03T13:43:45.675Z,8.33
2023-02-03T13:48:47.751Z,8.41
2023-02-03T13:53:50.814Z,8.42
2023-02-03T13:59:15.653Z,8.40
2023-02-03T14:04:26.048Z,8.40
2023-02-03T14:09:30.442Z,8.33
2023-02-03T14:14:34.931Z,8.29
2023-02-03T14:19:51.890Z,8.29
2023-02-03T14:24:56.574Z,8.19
2023-02-03T14:30:16.840Z,8.18
2023-02-03T14:35:42.564Z,8.19
2023-02-03T14:40:59.932Z,8.09
2023-02-03T14:46:10.281Z,8.12
2023-02-03T14:51:38.980Z,8.14
2023-02-03T14:57:06.486Z,8.11
2023-02-03T15:02:17.593Z,8.06
2023-02-03T15:07:45.263Z,8.02
2023-02-03T15:12:55.418Z,7.95
2023-02-03T15:18:01.974Z,7.99
2023-02-03T15:23:17.599Z,7.83
2023-02-03T15:28:23.431Z,7.71
2023-02-03T15:33:25.392Z,7.75
2023-02-03T15:38:36.994Z,7.72
2023-02-03T15:49:14.193Z,7.64
2023-02-03T15:54:22.968Z,7.64
2023-02-03T15:59:31.863Z,7.58
2023-02-03T16:04:33.669Z,7.60
2023-02-03T16:09:41.809Z,7.48
2023-02-03T16:14:44.344Z,7.40
2023-02-03T16:19:51.287Z,7.40
2023-02-03T16:24:52.821Z,7.38
2023-02-03T16:30:33.537Z,7.33
2023-02-03T16:35:53.366Z,7.32
2023-02-03T16:41:13.745Z,7.27
2023-02-03T16:46:33.528Z,7.22
2023-02-03T16:51:41.623Z,7.15
2023-02-03T16:56:43.272Z,7.04
2023-02-03T17:01:44.833Z,6.93
2023-02-03T17:06:51.021Z,6.91
2023-02-03T17:11:53.759Z,6.81
2023-02-03T17:16:55.439Z,6.66
2023-02-03T17:21:56.924Z,6.65
2023-02-03T17:26:59.126Z,6.69
2023-02-03T17:32:00.921Z,6.63
2023-02-03T17:37:02.546Z,6.66
2023-02-03T17:58:01.008Z,6.71
2023-02-03T18:03:02.960Z,6.67
2023-02-03T18:08:12.425Z,6.62
2023-02-03T18:13:18.378Z,6.63
2023-02-03T18:18:21.330Z,6.80
2023-02-03T18:23:22.787Z,6.91
2023-02-03T18:28:24.611Z,6.88
2023-02-03T18:33:26.388Z,6.75
2023-02-03T18:38:30.518Z,6.71
2023-02-03T18:43:32.258Z,6.81
2023-02-03T18:48:33.751Z,6.81
2023-02-03T18:53:36.109Z,6.79
2023-02-03T18:58:37.696Z,6.77
2023-02-03T19:03:39.288Z,6.84
2023-02-03T19:08:40.754Z,6.83
2023-02-03T19:13:42.834Z,6.86
2023-02-03T19:18:45.352Z,6.85
2023-02-03T19:23:47.175Z,6.89
2023-02-03T19:28:48.912Z,6.92
2023-02-03T19:33:50.716Z,6.92
2023-02-03T19:38:52.202Z,6.97
2023-02-03T19:43:53.918Z,7.10
2023-02-03T19:48:55.506Z,7.16
2023-02-03T19:53:58.841Z,7.17
2023-02-03T19:59:00.391Z,7.13
2023-02-03T20:04:02.096Z,6.99
2023-02-03T20:09:06.052Z,6.98
2023-02-03T20:14:07.562Z,6.95
2023-02-03T20:19:09.070Z,6.96
2023-02-03T20:24:10.866Z,6.94
2023-02-03T20:29:12.322Z,6.91
2023-02-03T20:34:14.118Z,6.88
2023-02-03T20:39:20.004Z,6.91
2023-02-03T20:44:21.579Z,6.87
2023-02-03T20:49:23.166Z,6.87
2023-02-03T20:54:24.713Z,6.91
2023-02-03T20:59:26.249Z,6.91
2023-02-03T21:04:46.485Z,6.90
2023-02-03T21:09:48.026Z,6.89
2023-02-03T21:14:49.737Z,6.91
2023-02-03T21:19:52.332Z,6.93
2023-02-03T21:24:54.944Z,6.97
2023-02-03T21:30:01.484Z,6.98
2023-02-03T21:35:05.363Z,6.99
2023-02-03T21:40:25.384Z,7.05
2023-02-03T21:45:28.449Z,7.10
2023-02-03T21:50:31.029Z,7.11
2023-02-03T21:55:32.816Z,7.10
2023-02-03T22:00:47.886Z,7.08
2023-02-03T22:05:51.321Z,7.12
2023-02-03T22:10:52.811Z,7.08
2023-02-03T22:15:54.396Z,7.11
2023-02-03T22:20:55.968Z,7.12
2023-02-03T22:25:57.535Z,7.15
2023-02-03T22:30:59.180Z,7.15
2023-02-03T22:36:00.966Z,7.17
2023-02-03T22:41:03.115Z,7.17
2023-02-03T22:46:06.754Z,7.20
2023-02-03T22:51:08.542Z,7.15
2023-02-03T22:56:10.102Z,7.12
2023-02-03T23:01:12.231Z,7.16
2023-02-03T23:06:13.785Z,7.20
2023-02-03T23:11:15.264Z,7.05
2023-02-03T23:16:16.929Z,6.98
2023-02-03T23:21:18.562Z,6.89
2023-02-03T23:26:20.087Z,6.78
2023-02-03T23:31:21.689Z,6.68
2023-02-03T23:36:23.264Z,6.58
2023-02-03T23:41:25.040Z,6.53
2023-02-03T23:46:26.882Z,6.56
2023-02-03T23:51:28.517Z,6.55
2023-02-03T23:56:30.128Z,6.58
